sensor_id;sensor_type;location;lat;lon;timestamp;P1;durP1;ratioP1;P2;durP2;ratioP2
7193;SDS011;3638;48.820;9.244;2022-08-19T00:01:21;13.57;;;12.23;;
7193;SDS011;3638;48.820;9.244;2022-08-19T00:03:49;14.70;;;12.60;;
7193;SDS011;3638;48.820;9.244;2022-08-19T00:06:17;14.25;;;12.77;;
7193;SDS011;3638;48.820;9.244;2022-08-19T00:08:44;14.80;;;12.77;;
7193;SDS011;3638;48.820;9.244;2022-08-19T00:11:11;14.88;;;13.38;;
7193;SDS011;3638;48.820;9.244;2022-08-19T00:13:38;14.48;;;12.98;;
7193;SDS011;3638;48.820;9.244;2022-08-19T00:16:07;13.95;;;12.32;;
7193;SDS011;3638;48.820;9.244;2022-08-19T00:18:34;14.23;;;12.73;;
7193;SDS011;3638;48.820;9.244;2022-08-19T00:21:01;14.85;;;12.95;;
7193;SDS011;3638;48.820;9.244;2022-08-19T00:23:34;13.95;;;12.55;;
7193;SDS011;3638;48.820;9.244;2022-08-19T00:26:02;14.35;;;12.52;;
7193;SDS011;3638;48.820;9.244;2022-08-19T00:28:30;13.80;;;12.40;;
7193;SDS011;3638;48.820;9.244;2022-08-19T00:30:58;14.50;;;12.75;;
7193;SDS011;3638;48.820;9.244;2022-08-19T00:33:27;14.40;;;12.88;;
7193;SDS011;3638;48.820;9.244;2022-08-19T00:35:54;14.55;;;12.98;;
7193;SDS011;3638;48.820;9.244;2022-08-19T00:38:21;14.45;;;12.85;;
7193;SDS011;3638;48.820;9.244;2022-08-19T00:40:48;16.08;;;13.75;;
7193;SDS011;3638;48.820;9.244;2022-08-19T00:43:18;13.13;;;11.82;;
7193;SDS011;3638;48.820;9.244;2022-08-19T00:45:47;14.35;;;12.90;;
7193;SDS011;3638;48.820;9.244;2022-08-19T00:48:15;14.82;;;13.13;;
7193;SDS011;3638;48.820;9.244;2022-08-19T00:50:43;15.48;;;13.77;;
7193;SDS011;3638;48.820;9.244;2022-08-19T00:53:12;15.30;;;12.82;;
7193;SDS011;3638;48.820;9.244;2022-08-19T00:55:44;14.98;;;13.38;;
7193;SDS011;3638;48.820;9.244;2022-08-19T00:58:14;16.25;;;13.57;;
7193;SDS011;3638;48.820;9.244;2022-08-19T01:00:48;14.02;;;12.57;;
7193;SDS011;3638;48.820;9.244;2022-08-19T01:03:17;14.07;;;12.35;;
7193;SDS011;3638;48.820;9.244;2022-08-19T01:05:47;13.63;;;12.13;;
7193;SDS011;3638;48.820;9.244;2022-08-19T01:08:17;14.40;;;12.90;;
7193;SDS011;3638;48.820;9.244;2022-08-19T01:10:46;14.45;;;12.95;;
7193;SDS011;3638;48.820;9.244;2022-08-19T01:13:16;12.95;;;11.65;;
7193;SDS011;3638;48.820;9.244;2022-08-19T01:15:49;15.30;;;12.93;;
7193;SDS011;3638;48.820;9.244;2022-08-19T01:18:20;15.02;;;13.48;;
7193;SDS011;3638;48.820;9.244;2022-08-19T01:20:49;14.60;;;12.52;;
7193;SDS011;3638;48.820;9.244;2022-08-19T01:23:18;15.75;;;13.93;;
7193;SDS011;3638;48.820;9.244;2022-08-19T01:25:47;14.75;;;13.15;;
7193;SDS011;3638;48.820;9.244;2022-08-19T01:28:19;13.55;;;12.15;;
7193;SDS011;3638;48.820;9.244;2022-08-19T01:30:50;15.32;;;13.57;;
7193;SDS011;3638;48.820;9.244;2022-08-19T01:33:19;14.30;;;12.90;;
7193;SDS011;3638;48.820;9.244;2022-08-19T01:35:46;18.42;;;13.25;;
7193;SDS011;3638;48.820;9.244;2022-08-19T01:38:21;17.13;;;13.32;;
7193;SDS011;3638;48.820;9.244;2022-08-19T01:40:50;15.25;;;13.55;;
7193;SDS011;3638;48.820;9.244;2022-08-19T01:43:18;15.73;;;13.85;;
7193;SDS011;3638;48.820;9.244;2022-08-19T01:45:45;16.33;;;13.52;;
7193;SDS011;3638;48.820;9.244;2022-08-19T01:48:13;15.23;;;13.38;;
7193;SDS011;3638;48.820;9.244;2022-08-19T01:50:40;16.63;;;14.10;;
7193;SDS011;3638;48.820;9.244;2022-08-19T01:53:09;16.00;;;13.82;;
7193;SDS011;3638;48.820;9.244;2022-08-19T01:55:40;17.50;;;14.00;;
7193;SDS011;3638;48.820;9.244;2022-08-19T01:58:10;15.40;;;13.77;;
7193;SDS011;3638;48.820;9.244;2022-08-19T02:00:42;16.35;;;14.10;;
7193;SDS011;3638;48.820;9.244;2022-08-19T02:03:10;16.48;;;13.95;;
7193;SDS011;3638;48.820;9.244;2022-08-19T02:05:38;18.85;;;15.57;;
7193;SDS011;3638;48.820;9.244;2022-08-19T02:08:06;15.80;;;14.07;;
7193;SDS011;3638;48.820;9.244;2022-08-19T02:10:37;17.35;;;15.15;;
7193;SDS011;3638;48.820;9.244;2022-08-19T02:13:09;18.75;;;15.65;;
7193;SDS011;3638;48.820;9.244;2022-08-19T02:15:38;17.17;;;14.65;;
7193;SDS011;3638;48.820;9.244;2022-08-19T02:18:05;18.58;;;15.18;;
7193;SDS011;3638;48.820;9.244;2022-08-19T02:20:33;19.35;;;14.50;;
7193;SDS011;3638;48.820;9.244;2022-08-19T02:23:00;18.00;;;16.02;;
7193;SDS011;3638;48.820;9.244;2022-08-19T02:25:27;18.90;;;15.90;;
7193;SDS011;3638;48.820;9.244;2022-08-19T02:27:56;18.33;;;16.17;;
7193;SDS011;3638;48.820;9.244;2022-08-19T02:30:23;18.58;;;15.02;;
7193;SDS011;3638;48.820;9.244;2022-08-19T02:32:50;20.73;;;16.45;;
7193;SDS011;3638;48.820;9.244;2022-08-19T02:35:18;20.40;;;16.73;;
7193;SDS011;3638;48.820;9.244;2022-08-19T02:37:45;17.75;;;15.90;;
7193;SDS011;3638;48.820;9.244;2022-08-19T02:40:30;18.38;;;16.33;;
7193;SDS011;3638;48.820;9.244;2022-08-19T02:43:00;19.80;;;16.40;;
7193;SDS011;3638;48.820;9.244;2022-08-19T02:45:31;19.75;;;16.73;;
7193;SDS011;3638;48.820;9.244;2022-08-19T02:47:59;19.92;;;17.38;;
7193;SDS011;3638;48.820;9.244;2022-08-19T02:50:26;20.75;;;17.63;;
7193;SDS011;3638;48.820;9.244;2022-08-19T02:52:53;24.48;;;19.17;;
7193;SDS011;3638;48.820;9.244;2022-08-19T02:55:20;20.48;;;17.52;;
7193;SDS011;3638;48.820;9.244;2022-08-19T02:57:47;20.05;;;17.45;;
7193;SDS011;3638;48.820;9.244;2022-08-19T03:00:16;23.55;;;18.58;;
7193;SDS011;3638;48.820;9.244;2022-08-19T03:02:43;20.73;;;18.20;;
7193;SDS011;3638;48.820;9.244;2022-08-19T03:05:11;22.23;;;18.73;;
7193;SDS011;3638;48.820;9.244;2022-08-19T03:07:38;21.85;;;17.92;;
7193;SDS011;3638;48.820;9.244;2022-08-19T03:10:06;23.70;;;19.63;;
7193;SDS011;3638;48.820;9.244;2022-08-19T03:12:35;21.23;;;18.92;;
7193;SDS011;3638;48.820;9.244;2022-08-19T03:15:03;23.90;;;19.05;;
7193;SDS011;3638;48.820;9.244;2022-08-19T03:17:33;20.50;;;18.05;;
7193;SDS011;3638;48.820;9.244;2022-08-19T03:20:01;25.20;;;20.33;;
7193;SDS011;3638;48.820;9.244;2022-08-19T03:22:30;25.55;;;19.48;;
7193;SDS011;3638;48.820;9.244;2022-08-19T03:24:57;25.48;;;20.83;;
7193;SDS011;3638;48.820;9.244;2022-08-19T03:27:24;23.88;;;20.63;;
7193;SDS011;3638;48.820;9.244;2022-08-19T03:29:52;23.58;;;19.83;;
7193;SDS011;3638;48.820;9.244;2022-08-19T03:32:19;25.13;;;20.40;;
7193;SDS011;3638;48.820;9.244;2022-08-19T03:34:48;23.58;;;19.58;;
7193;SDS011;3638;48.820;9.244;2022-08-19T03:37:15;25.40;;;20.85;;
7193;SDS011;3638;48.820;9.244;2022-08-19T03:39:42;27.55;;;20.50;;
7193;SDS011;3638;48.820;9.244;2022-08-19T03:42:10;23.13;;;19.95;;
7193;SDS011;3638;48.820;9.244;2022-08-19T03:44:37;24.50;;;19.88;;
7193;SDS011;3638;48.820;9.244;2022-08-19T03:47:05;21.52;;;18.83;;
7193;SDS011;3638;48.820;9.244;2022-08-19T03:49:32;23.20;;;19.92;;
7193;SDS011;3638;48.820;9.244;2022-08-19T03:52:01;22.73;;;19.02;;
7193;SDS011;3638;48.820;9.244;2022-08-19T03:54:33;23.55;;;20.77;;
7193;SDS011;3638;48.820;9.244;2022-08-19T03:57:03;22.55;;;19.15;;
7193;SDS011;3638;48.820;9.244;2022-08-19T03:59:31;21.85;;;19.02;;
7193;SDS011;3638;48.820;9.244;2022-08-19T04:02:06;26.48;;;21.02;;
7193;SDS011;3638;48.820;9.244;2022-08-19T04:04:35;22.15;;;19.70;;
7193;SDS011;3638;48.820;9.244;2022-08-19T04:07:05;21.23;;;18.92;;
7193;SDS011;3638;48.820;9.244;2022-08-19T04:09:33;26.00;;;20.77;;
7193;SDS011;3638;48.820;9.244;2022-08-19T04:12:02;26.75;;;21.00;;
7193;SDS011;3638;48.820;9.244;2022-08-19T04:14:30;20.67;;;18.48;;
7193;SDS011;3638;48.820;9.244;2022-08-19T04:16:59;25.15;;;19.83;;
7193;SDS011;3638;48.820;9.244;2022-08-19T04:19:29;22.30;;;19.90;;
7193;SDS011;3638;48.820;9.244;2022-08-19T04:21:57;22.98;;;20.52;;
7193;SDS011;3638;48.820;9.244;2022-08-19T04:24:26;26.00;;;21.77;;
7193;SDS011;3638;48.820;9.244;2022-08-19T04:26:53;25.17;;;21.45;;
7193;SDS011;3638;48.820;9.244;2022-08-19T04:29:21;23.88;;;21.10;;
7193;SDS011;3638;48.820;9.244;2022-08-19T04:31:52;27.25;;;23.00;;
7193;SDS011;3638;48.820;9.244;2022-08-19T04:34:21;30.30;;;22.85;;
7193;SDS011;3638;48.820;9.244;2022-08-19T04:36:51;26.65;;;22.40;;
7193;SDS011;3638;48.820;9.244;2022-08-19T04:39:24;26.13;;;22.10;;
7193;SDS011;3638;48.820;9.244;2022-08-19T04:42:08;24.50;;;21.35;;
7193;SDS011;3638;48.820;9.244;2022-08-19T04:44:53;28.67;;;23.10;;
7193;SDS011;3638;48.820;9.244;2022-08-19T04:47:20;26.70;;;22.00;;
7193;SDS011;3638;48.820;9.244;2022-08-19T04:49:47;27.27;;;22.25;;
7193;SDS011;3638;48.820;9.244;2022-08-19T04:52:14;25.77;;;21.92;;
7193;SDS011;3638;48.820;9.244;2022-08-19T04:54:43;27.45;;;21.85;;
7193;SDS011;3638;48.820;9.244;2022-08-19T04:57:09;25.92;;;22.20;;
7193;SDS011;3638;48.820;9.244;2022-08-19T04:59:37;25.00;;;21.40;;
7193;SDS011;3638;48.820;9.244;2022-08-19T05:02:06;26.50;;;22.13;;
7193;SDS011;3638;48.820;9.244;2022-08-19T05:04:35;27.77;;;23.45;;
7193;SDS011;3638;48.820;9.244;2022-08-19T05:07:04;27.08;;;22.77;;
7193;SDS011;3638;48.820;9.244;2022-08-19T05:09:31;25.10;;;21.40;;
7193;SDS011;3638;48.820;9.244;2022-08-19T05:12:00;25.92;;;22.23;;
7193;SDS011;3638;48.820;9.244;2022-08-19T05:14:27;24.08;;;21.25;;
7193;SDS011;3638;48.820;9.244;2022-08-19T05:16:54;25.48;;;21.52;;
7193;SDS011;3638;48.820;9.244;2022-08-19T05:19:21;26.58;;;22.83;;
7193;SDS011;3638;48.820;9.244;2022-08-19T05:22:05;24.08;;;20.50;;
7193;SDS011;3638;48.820;9.244;2022-08-19T05:24:50;23.58;;;21.08;;
7193;SDS011;3638;48.820;9.244;2022-08-19T05:27:18;23.80;;;20.73;;
7193;SDS011;3638;48.820;9.244;2022-08-19T05:29:45;21.98;;;19.67;;
7193;SDS011;3638;48.820;9.244;2022-08-19T05:32:12;24.88;;;20.65;;
7193;SDS011;3638;48.820;9.244;2022-08-19T05:34:38;25.83;;;21.67;;
7193;SDS011;3638;48.820;9.244;2022-08-19T05:37:05;22.92;;;19.50;;
7193;SDS011;3638;48.820;9.244;2022-08-19T05:39:35;23.92;;;20.48;;
7193;SDS011;3638;48.820;9.244;2022-08-19T05:42:04;28.15;;;22.27;;
7193;SDS011;3638;48.820;9.244;2022-08-19T05:44:36;23.80;;;21.23;;
7193;SDS011;3638;48.820;9.244;2022-08-19T05:47:09;25.58;;;22.00;;
7193;SDS011;3638;48.820;9.244;2022-08-19T05:49:39;24.60;;;21.90;;
7193;SDS011;3638;48.820;9.244;2022-08-19T05:52:08;24.10;;;20.50;;
7193;SDS011;3638;48.820;9.244;2022-08-19T05:54:40;24.63;;;20.92;;
7193;SDS011;3638;48.820;9.244;2022-08-19T05:57:08;25.45;;;22.85;;
7193;SDS011;3638;48.820;9.244;2022-08-19T05:59:37;24.42;;;21.75;;
7193;SDS011;3638;48.820;9.244;2022-08-19T06:02:04;24.05;;;21.45;;
7193;SDS011;3638;48.820;9.244;2022-08-19T06:04:32;26.20;;;22.00;;
7193;SDS011;3638;48.820;9.244;2022-08-19T06:06:59;24.60;;;21.20;;
7193;SDS011;3638;48.820;9.244;2022-08-19T06:09:27;26.40;;;22.92;;
7193;SDS011;3638;48.820;9.244;2022-08-19T06:11:55;23.27;;;20.55;;
7193;SDS011;3638;48.820;9.244;2022-08-19T06:14:26;25.90;;;22.15;;
7193;SDS011;3638;48.820;9.244;2022-08-19T06:16:58;25.67;;;22.65;;
7193;SDS011;3638;48.820;9.244;2022-08-19T06:19:26;25.73;;;22.33;;
7193;SDS011;3638;48.820;9.244;2022-08-19T06:21:56;26.98;;;23.20;;
7193;SDS011;3638;48.820;9.244;2022-08-19T06:24:25;26.42;;;22.60;;
7193;SDS011;3638;48.820;9.244;2022-08-19T06:26:56;28.75;;;23.52;;
7193;SDS011;3638;48.820;9.244;2022-08-19T06:29:25;29.02;;;24.02;;
7193;SDS011;3638;48.820;9.244;2022-08-19T06:31:54;28.67;;;23.73;;
7193;SDS011;3638;48.820;9.244;2022-08-19T06:34:25;28.38;;;24.20;;
7193;SDS011;3638;48.820;9.244;2022-08-19T06:36:54;28.83;;;23.73;;
7193;SDS011;3638;48.820;9.244;2022-08-19T06:39:26;27.05;;;22.80;;
7193;SDS011;3638;48.820;9.244;2022-08-19T06:41:55;28.77;;;24.13;;
7193;SDS011;3638;48.820;9.244;2022-08-19T06:44:26;26.23;;;23.33;;
7193;SDS011;3638;48.820;9.244;2022-08-19T06:46:54;25.80;;;22.75;;
7193;SDS011;3638;48.820;9.244;2022-08-19T06:49:23;25.00;;;22.40;;
7193;SDS011;3638;48.820;9.244;2022-08-19T06:51:52;30.73;;;24.85;;
7193;SDS011;3638;48.820;9.244;2022-08-19T06:54:21;28.90;;;22.70;;
7193;SDS011;3638;48.820;9.244;2022-08-19T06:56:49;25.83;;;22.45;;
7193;SDS011;3638;48.820;9.244;2022-08-19T06:59:17;25.75;;;22.92;;
7193;SDS011;3638;48.820;9.244;2022-08-19T07:01:46;26.08;;;23.20;;
7193;SDS011;3638;48.820;9.244;2022-08-19T07:04:15;27.90;;;23.88;;
7193;SDS011;3638;48.820;9.244;2022-08-19T07:06:46;27.02;;;23.92;;
7193;SDS011;3638;48.820;9.244;2022-08-19T07:09:14;27.00;;;23.55;;
7193;SDS011;3638;48.820;9.244;2022-08-19T07:11:44;26.73;;;22.88;;
7193;SDS011;3638;48.820;9.244;2022-08-19T07:14:12;25.55;;;22.15;;
7193;SDS011;3638;48.820;9.244;2022-08-19T07:16:40;31.55;;;23.90;;
7193;SDS011;3638;48.820;9.244;2022-08-19T07:19:08;26.08;;;23.30;;
7193;SDS011;3638;48.820;9.244;2022-08-19T07:21:35;24.00;;;21.50;;
7193;SDS011;3638;48.820;9.244;2022-08-19T07:24:04;28.10;;;22.17;;
7193;SDS011;3638;48.820;9.244;2022-08-19T07:26:32;27.15;;;22.05;;
7193;SDS011;3638;48.820;9.244;2022-08-19T07:29:04;26.17;;;21.17;;
7193;SDS011;3638;48.820;9.244;2022-08-19T07:31:32;24.65;;;21.95;;
7193;SDS011;3638;48.820;9.244;2022-08-19T07:34:02;30.13;;;22.35;;
7193;SDS011;3638;48.820;9.244;2022-08-19T07:36:31;22.65;;;19.88;;
7193;SDS011;3638;48.820;9.244;2022-08-19T07:39:01;24.73;;;20.30;;
7193;SDS011;3638;48.820;9.244;2022-08-19T07:41:36;24.92;;;19.83;;
7193;SDS011;3638;48.820;9.244;2022-08-19T07:44:04;25.48;;;22.33;;
7193;SDS011;3638;48.820;9.244;2022-08-19T07:46:33;25.73;;;21.48;;
7193;SDS011;3638;48.820;9.244;2022-08-19T07:49:03;23.23;;;20.38;;
7193;SDS011;3638;48.820;9.244;2022-08-19T07:51:31;24.52;;;21.92;;
7193;SDS011;3638;48.820;9.244;2022-08-19T07:53:58;24.40;;;20.90;;
7193;SDS011;3638;48.820;9.244;2022-08-19T07:56:27;27.30;;;20.98;;
7193;SDS011;3638;48.820;9.244;2022-08-19T07:58:54;23.35;;;20.08;;
7193;SDS011;3638;48.820;9.244;2022-08-19T08:01:21;26.60;;;21.55;;
7193;SDS011;3638;48.820;9.244;2022-08-19T08:03:51;26.25;;;21.33;;
7193;SDS011;3638;48.820;9.244;2022-08-19T08:06:38;24.02;;;19.90;;
7193;SDS011;3638;48.820;9.244;2022-08-19T08:09:24;23.10;;;20.30;;
7193;SDS011;3638;48.820;9.244;2022-08-19T08:11:57;25.05;;;21.27;;
7193;SDS011;3638;48.820;9.244;2022-08-19T08:14:29;22.35;;;20.05;;
7193;SDS011;3638;48.820;9.244;2022-08-19T08:17:00;25.10;;;19.73;;
7193;SDS011;3638;48.820;9.244;2022-08-19T08:19:28;23.05;;;20.48;;
7193;SDS011;3638;48.820;9.244;2022-08-19T08:21:57;21.40;;;17.27;;
7193;SDS011;3638;48.820;9.244;2022-08-19T08:24:25;20.63;;;18.23;;
7193;SDS011;3638;48.820;9.244;2022-08-19T08:26:55;23.52;;;19.85;;
7193;SDS011;3638;48.820;9.244;2022-08-19T08:29:23;24.23;;;17.02;;
7193;SDS011;3638;48.820;9.244;2022-08-19T08:31:50;23.02;;;20.25;;
7193;SDS011;3638;48.820;9.244;2022-08-19T08:34:18;24.20;;;19.38;;
7193;SDS011;3638;48.820;9.244;2022-08-19T08:36:46;22.58;;;19.88;;
7193;SDS011;3638;48.820;9.244;2022-08-19T08:39:14;24.60;;;20.52;;
7193;SDS011;3638;48.820;9.244;2022-08-19T08:41:44;20.92;;;18.73;;
7193;SDS011;3638;48.820;9.244;2022-08-19T08:44:22;23.08;;;19.50;;
7193;SDS011;3638;48.820;9.244;2022-08-19T08:46:58;21.40;;;18.67;;
7193;SDS011;3638;48.820;9.244;2022-08-19T08:49:29;22.30;;;18.55;;
7193;SDS011;3638;48.820;9.244;2022-08-19T08:52:15;23.10;;;20.63;;
7193;SDS011;3638;48.820;9.244;2022-08-19T08:54:49;21.05;;;18.77;;
7193;SDS011;3638;48.820;9.244;2022-08-19T08:57:19;21.42;;;19.20;;
7193;SDS011;3638;48.820;9.244;2022-08-19T08:59:55;20.35;;;18.02;;
7193;SDS011;3638;48.820;9.244;2022-08-19T09:02:24;19.45;;;17.45;;
7193;SDS011;3638;48.820;9.244;2022-08-19T09:04:51;21.08;;;17.75;;
7193;SDS011;3638;48.820;9.244;2022-08-19T09:07:23;18.67;;;16.77;;
7193;SDS011;3638;48.820;9.244;2022-08-19T09:10:02;24.55;;;18.20;;
7193;SDS011;3638;48.820;9.244;2022-08-19T09:12:38;21.25;;;17.77;;
7193;SDS011;3638;48.820;9.244;2022-08-19T09:15:16;21.42;;;17.70;;
7193;SDS011;3638;48.820;9.244;2022-08-19T09:17:49;19.73;;;17.15;;
7193;SDS011;3638;48.820;9.244;2022-08-19T09:20:18;20.60;;;18.45;;
7193;SDS011;3638;48.820;9.244;2022-08-19T09:22:46;22.33;;;19.20;;
7193;SDS011;3638;48.820;9.244;2022-08-19T09:25:15;20.50;;;17.50;;
7193;SDS011;3638;48.820;9.244;2022-08-19T09:27:48;21.20;;;17.83;;
7193;SDS011;3638;48.820;9.244;2022-08-19T09:30:19;17.98;;;16.08;;
7193;SDS011;3638;48.820;9.244;2022-08-19T09:32:49;19.73;;;17.52;;
7193;SDS011;3638;48.820;9.244;2022-08-19T09:35:19;19.92;;;17.33;;
7193;SDS011;3638;48.820;9.244;2022-08-19T09:37:48;22.60;;;18.48;;
7193;SDS011;3638;48.820;9.244;2022-08-19T09:40:16;19.40;;;17.33;;
7193;SDS011;3638;48.820;9.244;2022-08-19T09:42:45;20.67;;;18.48;;
7193;SDS011;3638;48.820;9.244;2022-08-19T09:45:13;20.83;;;17.33;;
7193;SDS011;3638;48.820;9.244;2022-08-19T09:47:42;18.38;;;16.08;;
7193;SDS011;3638;48.820;9.244;2022-08-19T09:50:10;18.52;;;16.25;;
7193;SDS011;3638;48.820;9.244;2022-08-19T09:52:38;19.05;;;16.92;;
7193;SDS011;3638;48.820;9.244;2022-08-19T09:55:07;18.80;;;16.15;;
7193;SDS011;3638;48.820;9.244;2022-08-19T09:57:36;18.33;;;16.38;;
7193;SDS011;3638;48.820;9.244;2022-08-19T10:00:04;17.05;;;15.30;;
7193;SDS011;3638;48.820;9.244;2022-08-19T10:02:35;18.30;;;16.27;;
7193;SDS011;3638;48.820;9.244;2022-08-19T10:05:04;20.40;;;17.25;;
7193;SDS011;3638;48.820;9.244;2022-08-19T10:07:48;21.90;;;16.83;;
7193;SDS011;3638;48.820;9.244;2022-08-19T10:10:16;19.60;;;17.30;;
7193;SDS011;3638;48.820;9.244;2022-08-19T10:12:43;20.67;;;17.13;;
7193;SDS011;3638;48.820;9.244;2022-08-19T10:15:12;20.40;;;17.17;;
7193;SDS011;3638;48.820;9.244;2022-08-19T10:17:40;19.05;;;17.10;;
7193;SDS011;3638;48.820;9.244;2022-08-19T10:20:09;20.90;;;17.35;;
7193;SDS011;3638;48.820;9.244;2022-08-19T10:22:36;22.35;;;17.27;;
7193;SDS011;3638;48.820;9.244;2022-08-19T10:25:04;21.88;;;17.83;;
7193;SDS011;3638;48.820;9.244;2022-08-19T10:27:33;18.65;;;16.35;;
7193;SDS011;3638;48.820;9.244;2022-08-19T10:30:00;18.85;;;16.83;;
7193;SDS011;3638;48.820;9.244;2022-08-19T10:32:27;17.27;;;15.27;;
7193;SDS011;3638;48.820;9.244;2022-08-19T10:34:55;20.50;;;16.05;;
7193;SDS011;3638;48.820;9.244;2022-08-19T10:37:23;20.10;;;16.48;;
7193;SDS011;3638;48.820;9.244;2022-08-19T10:39:50;22.50;;;16.35;;
7193;SDS011;3638;48.820;9.244;2022-08-19T10:42:17;19.48;;;14.85;;
7193;SDS011;3638;48.820;9.244;2022-08-19T10:44:45;17.42;;;15.00;;
7193;SDS011;3638;48.820;9.244;2022-08-19T10:47:13;16.55;;;14.70;;
7193;SDS011;3638;48.820;9.244;2022-08-19T10:49:40;16.08;;;14.48;;
7193;SDS011;3638;48.820;9.244;2022-08-19T10:52:21;18.55;;;15.02;;
7193;SDS011;3638;48.820;9.244;2022-08-19T10:55:03;15.50;;;13.82;;
7193;SDS011;3638;48.820;9.244;2022-08-19T10:57:50;15.32;;;13.77;;
7193;SDS011;3638;48.820;9.244;2022-08-19T11:00:18;17.48;;;12.88;;
7193;SDS011;3638;48.820;9.244;2022-08-19T11:02:45;14.13;;;12.70;;
7193;SDS011;3638;48.820;9.244;2022-08-19T11:05:13;13.55;;;12.18;;
7193;SDS011;3638;48.820;9.244;2022-08-19T11:07:40;13.27;;;11.98;;
7193;SDS011;3638;48.820;9.244;2022-08-19T11:10:11;11.77;;;10.43;;
7193;SDS011;3638;48.820;9.244;2022-08-19T11:12:43;13.25;;;10.05;;
7193;SDS011;3638;48.820;9.244;2022-08-19T11:15:11;10.88;;;9.77;;
7193;SDS011;3638;48.820;9.244;2022-08-19T11:17:39;15.55;;;10.60;;
7193;SDS011;3638;48.820;9.244;2022-08-19T11:20:08;11.82;;;10.23;;
7193;SDS011;3638;48.820;9.244;2022-08-19T11:22:38;11.40;;;10.20;;
7193;SDS011;3638;48.820;9.244;2022-08-19T11:25:07;11.57;;;10.43;;
7193;SDS011;3638;48.820;9.244;2022-08-19T11:27:37;15.25;;;11.65;;
7193;SDS011;3638;48.820;9.244;2022-08-19T11:30:07;13.32;;;11.93;;
7193;SDS011;3638;48.820;9.244;2022-08-19T11:32:36;13.73;;;12.40;;
7193;SDS011;3638;48.820;9.244;2022-08-19T11:35:04;14.73;;;13.00;;
7193;SDS011;3638;48.820;9.244;2022-08-19T11:37:32;17.42;;;14.82;;
7193;SDS011;3638;48.820;9.244;2022-08-19T11:40:02;14.00;;;12.52;;
7193;SDS011;3638;48.820;9.244;2022-08-19T11:42:32;17.45;;;14.20;;
7193;SDS011;3638;48.820;9.244;2022-08-19T11:45:17;15.43;;;12.15;;
7193;SDS011;3638;48.820;9.244;2022-08-19T11:47:43;16.88;;;13.25;;
7193;SDS011;3638;48.820;9.244;2022-08-19T11:50:11;14.85;;;13.35;;
7193;SDS011;3638;48.820;9.244;2022-08-19T11:52:39;12.68;;;10.02;;
7193;SDS011;3638;48.820;9.244;2022-08-19T11:55:06;12.63;;;10.27;;
7193;SDS011;3638;48.820;9.244;2022-08-19T11:57:36;11.43;;;10.00;;
7193;SDS011;3638;48.820;9.244;2022-08-19T12:00:03;10.15;;;9.15;;
7193;SDS011;3638;48.820;9.244;2022-08-19T12:02:32;10.48;;;9.48;;
7193;SDS011;3638;48.820;9.244;2022-08-19T12:04:59;10.57;;;9.32;;
7193;SDS011;3638;48.820;9.244;2022-08-19T12:07:27;10.60;;;9.48;;
7193;SDS011;3638;48.820;9.244;2022-08-19T12:09:56;10.13;;;9.15;;
7193;SDS011;3638;48.820;9.244;2022-08-19T12:12:23;9.60;;;8.52;;
7193;SDS011;3638;48.820;9.244;2022-08-19T12:14:53;9.73;;;8.73;;
7193;SDS011;3638;48.820;9.244;2022-08-19T12:17:23;9.13;;;8.23;;
7193;SDS011;3638;48.820;9.244;2022-08-19T12:19:50;11.57;;;9.07;;
7193;SDS011;3638;48.820;9.244;2022-08-19T12:22:17;9.70;;;8.70;;
7193;SDS011;3638;48.820;9.244;2022-08-19T12:24:45;9.40;;;8.50;;
7193;SDS011;3638;48.820;9.244;2022-08-19T12:27:13;9.68;;;8.77;;
7193;SDS011;3638;48.820;9.244;2022-08-19T12:29:39;10.98;;;9.88;;
7193;SDS011;3638;48.820;9.244;2022-08-19T12:32:08;9.95;;;8.90;;
7193;SDS011;3638;48.820;9.244;2022-08-19T12:34:35;9.73;;;8.15;;
7193;SDS011;3638;48.820;9.244;2022-08-19T12:37:03;8.93;;;8.02;;
7193;SDS011;3638;48.820;9.244;2022-08-19T12:39:33;10.32;;;8.75;;
7193;SDS011;3638;48.820;9.244;2022-08-19T12:42:03;11.70;;;10.52;;
7193;SDS011;3638;48.820;9.244;2022-08-19T12:44:30;15.48;;;13.50;;
7193;SDS011;3638;48.820;9.244;2022-08-19T12:46:58;18.05;;;15.88;;
7193;SDS011;3638;48.820;9.244;2022-08-19T12:49:28;21.38;;;18.48;;
7193;SDS011;3638;48.820;9.244;2022-08-19T12:51:56;22.75;;;18.83;;
7193;SDS011;3638;48.820;9.244;2022-08-19T12:54:23;23.30;;;19.48;;
7193;SDS011;3638;48.820;9.244;2022-08-19T12:56:50;21.80;;;19.45;;
7193;SDS011;3638;48.820;9.244;2022-08-19T12:59:17;19.30;;;17.27;;
7193;SDS011;3638;48.820;9.244;2022-08-19T13:01:44;22.05;;;19.58;;
7193;SDS011;3638;48.820;9.244;2022-08-19T13:04:11;22.85;;;20.05;;
7193;SDS011;3638;48.820;9.244;2022-08-19T13:06:40;25.60;;;21.30;;
7193;SDS011;3638;48.820;9.244;2022-08-19T13:09:07;24.17;;;21.60;;
7193;SDS011;3638;48.820;9.244;2022-08-19T13:11:35;25.90;;;22.52;;
7193;SDS011;3638;48.820;9.244;2022-08-19T13:14:04;23.67;;;21.10;;
7193;SDS011;3638;48.820;9.244;2022-08-19T13:16:32;26.65;;;22.73;;
7193;SDS011;3638;48.820;9.244;2022-08-19T13:18:59;24.92;;;22.23;;
7193;SDS011;3638;48.820;9.244;2022-08-19T13:21:27;27.02;;;22.52;;
7193;SDS011;3638;48.820;9.244;2022-08-19T13:23:57;25.15;;;22.55;;
7193;SDS011;3638;48.820;9.244;2022-08-19T13:26:24;24.48;;;21.95;;
7193;SDS011;3638;48.820;9.244;2022-08-19T13:28:51;26.75;;;23.58;;
7193;SDS011;3638;48.820;9.244;2022-08-19T13:31:36;29.83;;;23.35;;
7193;SDS011;3638;48.820;9.244;2022-08-19T13:34:26;27.77;;;24.77;;
7193;SDS011;3638;48.820;9.244;2022-08-19T13:36:57;30.23;;;25.15;;
7193;SDS011;3638;48.820;9.244;2022-08-19T13:39:29;30.85;;;25.48;;
7193;SDS011;3638;48.820;9.244;2022-08-19T13:41:57;31.58;;;26.92;;
7193;SDS011;3638;48.820;9.244;2022-08-19T13:44:25;30.35;;;25.67;;
7193;SDS011;3638;48.820;9.244;2022-08-19T13:46:54;30.55;;;26.67;;
7193;SDS011;3638;48.820;9.244;2022-08-19T13:49:30;29.80;;;25.58;;
7193;SDS011;3638;48.820;9.244;2022-08-19T13:51:57;29.17;;;25.33;;
7193;SDS011;3638;48.820;9.244;2022-08-19T13:54:24;29.50;;;26.30;;
7193;SDS011;3638;48.820;9.244;2022-08-19T13:56:53;32.30;;;27.25;;
7193;SDS011;3638;48.820;9.244;2022-08-19T13:59:20;30.38;;;25.92;;
7193;SDS011;3638;48.820;9.244;2022-08-19T14:01:47;33.15;;;27.40;;
7193;SDS011;3638;48.820;9.244;2022-08-19T14:04:14;32.40;;;27.60;;
7193;SDS011;3638;48.820;9.244;2022-08-19T14:06:41;32.03;;;28.38;;
7193;SDS011;3638;48.820;9.244;2022-08-19T14:09:08;33.53;;;28.45;;
7193;SDS011;3638;48.820;9.244;2022-08-19T14:11:35;34.08;;;28.90;;
7193;SDS011;3638;48.820;9.244;2022-08-19T14:14:04;37.40;;;29.20;;
7193;SDS011;3638;48.820;9.244;2022-08-19T14:16:31;37.17;;;31.52;;
7193;SDS011;3638;48.820;9.244;2022-08-19T14:18:58;39.13;;;31.27;;
7193;SDS011;3638;48.820;9.244;2022-08-19T14:21:25;37.28;;;31.15;;
7193;SDS011;3638;48.820;9.244;2022-08-19T14:23:52;34.38;;;29.05;;
7193;SDS011;3638;48.820;9.244;2022-08-19T14:26:20;35.83;;;31.17;;
7193;SDS011;3638;48.820;9.244;2022-08-19T14:28:48;37.78;;;31.48;;
7193;SDS011;3638;48.820;9.244;2022-08-19T14:31:18;35.72;;;30.50;;
7193;SDS011;3638;48.820;9.244;2022-08-19T14:33:48;40.65;;;34.25;;
7193;SDS011;3638;48.820;9.244;2022-08-19T14:36:16;35.72;;;30.67;;
7193;SDS011;3638;48.820;9.244;2022-08-19T14:38:44;35.08;;;30.25;;
7193;SDS011;3638;48.820;9.244;2022-08-19T14:41:12;35.72;;;29.58;;
7193;SDS011;3638;48.820;9.244;2022-08-19T14:43:42;37.72;;;31.48;;
7193;SDS011;3638;48.820;9.244;2022-08-19T14:46:11;37.00;;;31.65;;
7193;SDS011;3638;48.820;9.244;2022-08-19T14:48:41;39.83;;;32.53;;
7193;SDS011;3638;48.820;9.244;2022-08-19T14:51:09;37.22;;;31.45;;
7193;SDS011;3638;48.820;9.244;2022-08-19T14:53:36;38.00;;;32.35;;
7193;SDS011;3638;48.820;9.244;2022-08-19T14:56:07;36.17;;;31.00;;
7193;SDS011;3638;48.820;9.244;2022-08-19T14:58:35;39.13;;;31.75;;
7193;SDS011;3638;48.820;9.244;2022-08-19T15:01:05;35.13;;;30.73;;